createdAt,value
2018-04-13T00:01:49.245Z,21.15
2018-04-13T00:04:19.015Z,21.08
2018-04-13T00:06:48.567Z,21.10
2018-04-13T00:09:17.891Z,20.30
2018-04-13T00:11:47.139Z,21.05
2018-04-13T00:14:17.374Z,20.85
2018-04-13T00:16:47.648Z,21.37
2018-04-13T00:19:17.182Z,21.40
2018-04-13T00:21:46.494Z,20.20
2018-04-13T00:24:15.819Z,21.80
2018-04-13T00:26:45.052Z,20.98
2018-04-13T00:29:14.288Z,21.77
2018-04-13T00:31:44.609Z,22.55
2018-04-13T00:34:13.843Z,22.25
2018-04-13T00:36:43.512Z,22.10
2018-04-13T00:39:12.744Z,22.40
2018-04-13T00:41:43.439Z,23.45
2018-04-13T00:44:13.108Z,22.70
2018-04-13T00:46:42.451Z,24.08
2018-04-13T00:49:11.695Z,22.58
2018-04-13T00:51:41.063Z,22.37
2018-04-13T00:54:10.297Z,24.25
2018-04-13T00:56:39.657Z,23.10
2018-04-13T00:59:09.972Z,23.70
2018-04-13T01:01:39.491Z,23.10
2018-04-13T01:04:09.800Z,23.20
2018-04-13T01:06:39.263Z,24.20
2018-04-13T01:09:08.503Z,22.75
2018-04-13T01:11:37.919Z,23.65
2018-04-13T01:14:07.163Z,24.55
2018-04-13T01:16:36.524Z,23.70
2018-04-13T01:19:05.759Z,23.95
2018-04-13T01:21:35.535Z,24.33
2018-04-13T01:24:05.490Z,23.38
2018-04-13T01:26:35.060Z,23.33
2018-04-13T01:29:04.468Z,24.75
2018-04-13T01:31:34.484Z,25.35
2018-04-13T01:34:03.846Z,23.30
2018-04-13T01:36:33.712Z,23.60
2018-04-13T01:39:03.060Z,23.95
2018-04-13T01:41:32.309Z,24.27
2018-04-13T01:44:01.899Z,23.33
2018-04-13T01:46:31.932Z,25.08
2018-04-13T01:49:01.753Z,24.52
2018-04-13T01:51:31.747Z,25.23
2018-04-13T01:54:01.496Z,26.40
2018-04-13T01:56:30.781Z,24.92
2018-04-13T01:59:05.694Z,25.58
2018-04-13T02:01:35.142Z,25.75
2018-04-13T02:04:04.510Z,25.58
2018-04-13T02:06:34.511Z,26.12
2018-04-13T02:09:03.928Z,25.52
2018-04-13T02:11:33.583Z,24.98
2018-04-13T02:14:03.139Z,26.35
2018-04-13T02:16:32.371Z,26.42
2018-04-13T02:19:02.510Z,25.40
2018-04-13T02:21:31.746Z,25.70
2018-04-13T02:24:01.163Z,26.27
2018-04-13T02:26:30.991Z,26.80
2018-04-13T02:29:00.235Z,25.45
2018-04-13T02:31:30.301Z,25.27
2018-04-13T02:34:00.050Z,24.10
2018-04-13T02:36:29.907Z,25.40
2018-04-13T02:38:59.827Z,25.60
2018-04-13T02:41:29.361Z,25.55
2018-04-13T02:43:59.351Z,26.62
2018-04-13T02:46:28.980Z,27.62
2018-04-13T02:48:58.611Z,27.92
2018-04-13T02:51:28.191Z,25.23
2018-04-13T02:53:57.939Z,25.73
2018-04-13T02:56:27.416Z,27.73
2018-04-13T02:58:57.753Z,25.08
2018-04-13T03:01:27.874Z,27.92
2018-04-13T03:03:57.885Z,27.20
2018-04-13T03:06:27.518Z,26.30
2018-04-13T03:08:57.507Z,27.33
2018-04-13T03:11:26.893Z,27.20
2018-04-13T03:13:56.133Z,28.80
2018-04-13T03:16:25.894Z,26.55
2018-04-13T03:18:56.866Z,25.52
2018-04-13T03:21:27.173Z,28.48
2018-04-13T03:23:57.170Z,28.70
2018-04-13T03:26:26.578Z,27.33
2018-04-13T03:28:55.803Z,26.10
2018-04-13T03:31:25.034Z,27.87
2018-04-13T03:33:54.490Z,27.55
2018-04-13T03:36:23.728Z,27.67
2018-04-13T03:38:53.088Z,27.52
2018-04-13T03:41:22.307Z,28.05
2018-04-13T03:43:51.691Z,26.90
2018-04-13T03:46:21.483Z,27.37
2018-04-13T03:48:52.165Z,27.17
2018-04-13T03:51:22.794Z,28.77
2018-04-13T03:53:52.643Z,30.58
2018-04-13T03:56:21.872Z,28.00
2018-04-13T03:58:51.387Z,28.73
2018-04-13T04:01:20.916Z,30.40
2018-04-13T04:03:51.454Z,28.52
2018-04-13T04:06:21.464Z,30.40
2018-04-13T04:08:50.771Z,27.70
2018-04-13T04:11:20.010Z,29.65
2018-04-13T04:13:49.568Z,29.37
2018-04-13T04:16:18.810Z,29.90
2018-04-13T04:18:50.094Z,30.00
2018-04-13T04:21:36.887Z,29.40
2018-04-13T04:24:24.126Z,30.25
2018-04-13T04:26:53.348Z,29.08
2018-04-13T04:29:22.930Z,29.10
2018-04-13T04:31:52.762Z,30.45
2018-04-13T04:34:22.155Z,30.50
2018-04-13T04:36:51.378Z,31.12
2018-04-13T04:39:22.410Z,30.25
2018-04-13T04:41:52.411Z,31.02
2018-04-13T04:44:21.685Z,30.50
2018-04-13T04:46:51.122Z,30.75
2018-04-13T04:49:20.343Z,30.75
2018-04-13T04:51:50.531Z,30.35
2018-04-13T04:54:20.008Z,29.87
2018-04-13T04:56:49.334Z,30.00
2018-04-13T04:59:18.565Z,31.55
2018-04-13T05:01:47.931Z,31.70
2018-04-13T05:04:17.159Z,29.85
2018-04-13T05:06:46.567Z,31.52
2018-04-13T05:09:17.298Z,30.98
2018-04-13T05:11:48.266Z,29.98
2018-04-13T05:14:17.450Z,30.75
2018-04-13T05:16:47.449Z,30.00
2018-04-13T05:19:17.509Z,30.98
2018-04-13T05:21:47.063Z,29.73
2018-04-13T05:24:16.870Z,31.37
2018-04-13T05:26:46.271Z,29.60
2018-04-13T05:29:15.558Z,31.15
2018-04-13T05:31:44.926Z,30.45
2018-04-13T05:34:14.923Z,32.00
2018-04-13T05:36:44.241Z,31.00
2018-04-13T05:39:13.475Z,31.55
2018-04-13T05:41:42.806Z,31.35
2018-04-13T05:44:12.214Z,31.50
2018-04-13T05:46:42.322Z,29.85
2018-04-13T05:49:12.190Z,31.17
2018-04-13T05:51:41.538Z,30.50
2018-04-13T05:54:10.774Z,29.23
2018-04-13T05:56:40.765Z,30.35
2018-04-13T05:59:10.090Z,29.80
2018-04-13T06:01:39.562Z,29.12
2018-04-13T06:04:10.166Z,27.95
2018-04-13T06:06:39.830Z,28.40
2018-04-13T06:09:11.052Z,28.83
2018-04-13T06:11:40.282Z,27.00
2018-04-13T06:14:09.746Z,27.45
2018-04-13T06:16:39.075Z,29.58
2018-04-13T06:19:08.555Z,30.55
2018-04-13T06:21:38.683Z,28.10
2018-04-13T06:24:08.181Z,30.12
2018-04-13T06:26:37.430Z,27.60
2018-04-13T06:29:06.773Z,28.65
2018-04-13T06:31:36.015Z,27.90
2018-04-13T06:34:06.003Z,26.67
2018-04-13T06:36:35.238Z,28.40
2018-04-13T06:39:04.602Z,27.77
2018-04-13T06:41:33.840Z,28.00
2018-04-13T06:44:03.207Z,27.60
2018-04-13T06:46:32.986Z,28.38
2018-04-13T06:49:03.238Z,28.70
2018-04-13T06:51:33.408Z,30.10
2018-04-13T06:54:02.879Z,26.80
2018-04-13T06:56:32.117Z,27.95
2018-04-13T06:59:01.469Z,28.35
2018-04-13T07:01:30.701Z,29.65
2018-04-13T07:04:00.895Z,28.90
2018-04-13T07:06:31.455Z,28.02
2018-04-13T07:09:00.921Z,28.73
2018-04-13T07:11:30.158Z,29.77
2018-04-13T07:13:59.531Z,28.20
2018-04-13T07:16:29.038Z,28.98
2018-04-13T07:18:58.272Z,30.45
2018-04-13T07:21:27.839Z,30.73
2018-04-13T07:23:58.235Z,28.83
2018-04-13T07:26:28.206Z,30.12
2018-04-13T07:28:57.449Z,30.27
2018-04-13T07:31:26.974Z,29.63
2018-04-13T07:33:56.918Z,29.60
2018-04-13T07:36:26.719Z,31.07
2018-04-13T07:38:56.875Z,30.90
2018-04-13T07:41:26.342Z,32.80
2018-04-13T07:43:57.194Z,32.45
2018-04-13T07:46:26.586Z,31.35
2018-04-13T07:48:55.838Z,32.78
2018-04-13T07:51:25.206Z,31.17
2018-04-13T07:53:55.294Z,32.22
2018-04-13T07:56:25.164Z,32.85
2018-04-13T07:58:54.400Z,35.40
2018-04-13T08:01:23.835Z,32.42
2018-04-13T08:03:53.063Z,33.40
2018-04-13T08:06:22.450Z,34.65
2018-04-13T08:08:52.646Z,34.33
2018-04-13T08:11:22.669Z,32.00
2018-04-13T08:13:51.905Z,34.00
2018-04-13T08:16:22.706Z,34.13
2018-04-13T08:18:51.942Z,32.00
2018-04-13T08:21:21.183Z,34.97
2018-04-13T08:23:51.112Z,34.20
2018-04-13T08:26:20.341Z,33.60
2018-04-13T08:28:50.286Z,34.75
2018-04-13T08:31:19.526Z,34.17
2018-04-13T08:33:49.043Z,34.78
2018-04-13T08:36:18.289Z,33.40
2018-04-13T08:38:47.638Z,32.95
2018-04-13T08:41:17.190Z,34.65
2018-04-13T08:43:46.649Z,33.90
2018-04-13T08:46:16.034Z,33.55
2018-04-13T08:48:45.933Z,32.92
2018-04-13T08:51:15.109Z,36.67
2018-04-13T08:53:44.466Z,36.15
2018-04-13T08:56:14.224Z,34.08
2018-04-13T08:58:43.686Z,35.17
2018-04-13T09:01:12.938Z,34.15
2018-04-13T09:03:42.494Z,35.05
2018-04-13T09:06:13.046Z,32.63
2018-04-13T09:08:42.525Z,35.03
2018-04-13T09:11:12.567Z,35.35
2018-04-13T09:13:42.564Z,36.70
2018-04-13T09:16:12.578Z,35.92
2018-04-13T09:18:41.931Z,37.13
2018-04-13T09:21:11.194Z,39.35
2018-04-13T09:23:41.205Z,36.67
2018-04-13T09:26:11.220Z,37.45
2018-04-13T09:28:40.592Z,40.85
2018-04-13T09:31:09.830Z,38.67
2018-04-13T09:33:39.475Z,41.63
2018-04-13T09:36:09.036Z,39.83
2018-04-13T09:38:38.638Z,40.30
2018-04-13T09:41:08.515Z,38.57
2018-04-13T09:43:37.749Z,43.20
2018-04-13T09:46:07.211Z,42.67
2018-04-13T09:48:36.402Z,40.87
2018-04-13T09:51:05.758Z,41.10
2018-04-13T09:53:35.410Z,36.30
2018-04-13T09:56:04.977Z,34.80
2018-04-13T09:58:34.726Z,37.27
2018-04-13T10:01:05.635Z,37.70
2018-04-13T10:03:40.322Z,36.90
2018-04-13T10:06:09.759Z,36.80
2018-04-13T10:08:39.773Z,36.90
2018-04-13T10:11:09.125Z,37.87
2018-04-13T10:13:38.983Z,36.57
2018-04-13T10:16:08.394Z,38.37
2018-04-13T10:18:39.823Z,40.12
2018-04-13T10:21:09.258Z,38.45
2018-04-13T10:23:39.631Z,38.63
2018-04-13T10:26:09.496Z,41.47
2018-04-13T10:28:38.998Z,38.20
2018-04-13T10:31:08.237Z,37.97
2018-04-13T10:33:37.606Z,40.53
2018-04-13T10:36:08.234Z,38.90
2018-04-13T10:38:38.453Z,39.00
2018-04-13T10:41:08.974Z,38.47
2018-04-13T10:43:38.491Z,37.58
2018-04-13T10:46:09.351Z,37.17
2018-04-13T10:48:38.735Z,38.67
2018-04-13T10:51:08.751Z,39.92
2018-04-13T10:53:38.165Z,38.45
2018-04-13T10:56:08.176Z,37.55
2018-04-13T10:58:37.570Z,44.55
2018-04-13T11:01:06.817Z,38.13
2018-04-13T11:03:36.385Z,41.40
2018-04-13T11:06:07.522Z,39.35
2018-04-13T11:08:37.051Z,39.45
2018-04-13T11:11:07.082Z,41.47
2018-04-13T11:13:36.458Z,41.22
2018-04-13T11:16:06.467Z,43.20
2018-04-13T11:18:35.877Z,43.13
2018-04-13T11:21:05.109Z,43.33
2018-04-13T11:23:34.674Z,41.85
2018-04-13T11:26:04.486Z,42.17
2018-04-13T11:28:33.733Z,42.45
2018-04-13T11:31:03.191Z,45.22
2018-04-13T11:33:32.478Z,44.25
2018-04-13T11:36:02.618Z,44.63
2018-04-13T11:38:33.258Z,43.25
2018-04-13T11:41:02.648Z,44.58
2018-04-13T11:43:31.896Z,42.62
2018-04-13T11:46:01.260Z,45.78
2018-04-13T11:48:31.262Z,44.22
2018-04-13T11:51:01.322Z,42.30
2018-04-13T11:53:30.653Z,41.67
2018-04-13T11:56:00.008Z,43.83
2018-04-13T11:58:29.253Z,43.85
2018-04-13T12:00:58.701Z,43.08
2018-04-13T12:03:27.945Z,42.28
2018-04-13T12:05:57.513Z,43.25
2018-04-13T12:08:28.362Z,41.85
2018-04-13T12:10:57.737Z,44.15
2018-04-13T12:13:26.999Z,42.45
2018-04-13T12:15:56.545Z,48.92
2018-04-13T12:18:26.547Z,40.10
2018-04-13T12:20:56.381Z,42.80
2018-04-13T12:23:25.625Z,42.40
2018-04-13T12:25:55.690Z,44.30
2018-04-13T12:28:25.550Z,44.65
2018-04-13T12:30:55.014Z,46.60
2018-04-13T12:33:24.250Z,44.45
2018-04-13T12:35:53.637Z,45.53
2018-04-13T12:38:24.396Z,46.85
2018-04-13T12:40:53.857Z,46.20
2018-04-13T12:43:23.098Z,46.30
2018-04-13T12:45:53.078Z,52.08
2018-04-13T12:48:22.751Z,44.67
2018-04-13T12:50:51.999Z,45.85
2018-04-13T12:53:21.431Z,44.45
2018-04-13T12:55:50.651Z,42.33
2018-04-13T12:58:19.990Z,43.15
2018-04-13T13:00:49.610Z,41.78
2018-04-13T13:03:19.014Z,41.05
2018-04-13T13:05:48.259Z,38.35
2018-04-13T13:08:17.805Z,41.00
2018-04-13T13:10:47.179Z,41.28
2018-04-13T13:13:17.231Z,39.60
2018-04-13T13:15:46.770Z,41.28
2018-04-13T13:18:16.241Z,38.88
2018-04-13T13:20:45.488Z,42.83
2018-04-13T13:23:15.554Z,39.92
2018-04-13T13:25:45.602Z,39.28
2018-04-13T13:28:15.925Z,34.53
2018-04-13T13:30:45.183Z,36.22
2018-04-13T13:33:14.495Z,36.10
2018-04-13T13:35:43.739Z,34.47
2018-04-13T13:38:13.210Z,34.65
2018-04-13T13:40:42.454Z,35.58
2018-04-13T13:43:11.814Z,34.92
2018-04-13T13:45:41.254Z,33.20
2018-04-13T13:48:11.037Z,32.20
2018-04-13T13:50:41.262Z,33.58
2018-04-13T13:53:10.660Z,34.40
2018-04-13T13:55:40.157Z,34.22
2018-04-13T13:58:09.394Z,31.92
2018-04-13T14:00:38.766Z,35.08
2018-04-13T14:03:08.024Z,32.80
2018-04-13T14:05:37.369Z,33.25
2018-04-13T14:08:06.606Z,30.95
2018-04-13T14:10:35.981Z,29.67
2018-04-13T14:13:05.996Z,31.08
2018-04-13T14:15:35.836Z,28.50
2018-04-13T14:18:05.089Z,28.12
2018-04-13T14:20:34.537Z,29.12
2018-04-13T14:23:03.791Z,26.50
2018-04-13T14:25:34.859Z,24.77
2018-04-13T14:28:04.887Z,24.25
2018-04-13T14:30:34.257Z,25.08
2018-04-13T14:33:03.502Z,33.22
2018-04-13T14:35:32.970Z,28.92
2018-04-13T14:38:03.082Z,24.00
2018-04-13T14:40:32.594Z,25.17
2018-04-13T14:43:02.242Z,23.73
2018-04-13T14:45:32.218Z,24.75
2018-04-13T14:48:01.599Z,26.55
2018-04-13T14:50:30.833Z,25.98
2018-04-13T14:53:01.142Z,26.92
2018-04-13T14:55:30.383Z,26.30
2018-04-13T14:58:00.359Z,26.37
2018-04-13T15:00:30.267Z,27.20
2018-04-13T15:02:59.618Z,26.52
2018-04-13T15:05:28.859Z,27.83
2018-04-13T15:07:58.386Z,27.73
2018-04-13T15:10:28.179Z,28.73
2018-04-13T15:12:57.679Z,31.05
2018-04-13T15:15:26.918Z,30.25
2018-04-13T15:17:57.146Z,31.37
2018-04-13T15:20:26.379Z,29.70
2018-04-13T15:22:55.831Z,31.42
2018-04-13T15:25:25.068Z,29.35
2018-04-13T15:27:54.426Z,29.52
2018-04-13T15:30:24.209Z,30.25
2018-04-13T15:32:53.650Z,30.42
2018-04-13T15:35:23.670Z,30.33
2018-04-13T15:37:53.492Z,31.98
2018-04-13T15:40:23.100Z,31.75
2018-04-13T15:42:52.326Z,34.42
2018-04-13T15:45:21.694Z,32.80
2018-04-13T15:47:52.426Z,34.17
2018-04-13T15:50:21.787Z,32.90
2018-04-13T15:52:51.027Z,33.92
2018-04-13T15:55:20.517Z,31.90
2018-04-13T15:57:49.766Z,32.38
2018-04-13T16:00:19.135Z,34.22
2018-04-13T16:02:48.373Z,33.10
2018-04-13T16:05:17.764Z,32.63
2018-04-13T16:07:46.998Z,31.80
2018-04-13T16:10:16.561Z,38.92
2018-04-13T16:12:45.774Z,32.20
2018-04-13T16:15:16.782Z,33.25
2018-04-13T16:17:46.256Z,32.25
2018-04-13T16:20:15.490Z,31.10
2018-04-13T16:22:44.883Z,32.97
2018-04-13T16:25:14.134Z,32.00
2018-04-13T16:27:43.920Z,33.85
2018-04-13T16:30:13.127Z,33.95
2018-04-13T16:32:43.313Z,34.42
2018-04-13T16:35:13.476Z,34.78
2018-04-13T16:37:42.946Z,37.08
2018-04-13T16:40:12.194Z,35.10
2018-04-13T16:42:42.581Z,33.50
2018-04-13T16:45:12.525Z,34.38
2018-04-13T16:47:41.985Z,35.00
2018-04-13T16:50:11.227Z,36.50
2018-04-13T16:52:40.594Z,33.47
2018-04-13T16:55:09.840Z,35.17
2018-04-13T16:57:39.397Z,36.08
2018-04-13T17:00:08.795Z,36.95
2018-04-13T17:02:38.206Z,35.10
2018-04-13T17:05:07.493Z,36.15
2018-04-13T17:07:37.042Z,39.72
2018-04-13T17:10:06.640Z,35.97
2018-04-13T17:12:36.055Z,36.63
2018-04-13T17:15:05.302Z,36.67
2018-04-13T17:17:34.535Z,36.70
2018-04-13T17:20:04.768Z,35.42
2018-04-13T17:22:34.763Z,37.00
2018-04-13T17:25:04.166Z,38.00
2018-04-13T17:27:33.411Z,36.95
2018-04-13T17:30:02.987Z,37.22
2018-04-13T17:32:32.220Z,37.45
2018-04-13T17:35:01.998Z,37.15
2018-04-13T17:37:31.238Z,36.58
2018-04-13T17:40:01.711Z,36.67
2018-04-13T17:42:31.037Z,35.97
2018-04-13T17:45:00.422Z,37.13
2018-04-13T17:47:29.814Z,35.92
2018-04-13T17:49:59.220Z,35.25
2018-04-13T17:52:29.666Z,34.30
2018-04-13T17:54:59.064Z,34.95
2018-04-13T17:57:28.632Z,35.22
2018-04-13T17:59:58.693Z,37.15
2018-04-13T18:02:27.925Z,34.00
2018-04-13T18:04:57.283Z,35.65
2018-04-13T18:07:27.004Z,39.95
2018-04-13T18:09:57.090Z,37.05
2018-04-13T18:12:26.325Z,42.50
2018-04-13T18:14:57.146Z,46.22
2018-04-13T18:17:26.588Z,42.58
2018-04-13T18:19:56.058Z,36.28
2018-04-13T18:22:25.290Z,37.08
2018-04-13T18:24:54.659Z,33.40
2018-04-13T18:27:24.009Z,32.92
2018-04-13T18:29:53.470Z,33.63
2018-04-13T18:32:22.711Z,31.73
2018-04-13T18:34:51.947Z,35.05
2018-04-13T18:37:21.778Z,32.10
2018-04-13T18:39:51.526Z,31.48
2018-04-13T18:42:21.201Z,35.47
2018-04-13T18:44:50.441Z,33.42
2018-04-13T18:47:20.627Z,32.53
2018-04-13T18:49:49.869Z,32.05
2018-04-13T18:52:19.344Z,33.88
2018-04-13T18:54:48.652Z,31.30
2018-04-13T18:57:18.032Z,33.50
2018-04-13T18:59:47.274Z,35.50
2018-04-13T19:02:16.642Z,31.17
2018-04-13T19:04:46.723Z,31.15
2018-04-13T19:07:16.873Z,32.80
2018-04-13T19:09:46.924Z,32.17
2018-04-13T19:12:17.119Z,33.30
2018-04-13T19:14:47.131Z,32.25
2018-04-13T19:17:16.545Z,31.92
2018-04-13T19:19:46.553Z,31.65
2018-04-13T19:22:15.970Z,32.92
2018-04-13T19:24:46.019Z,30.37
2018-04-13T19:27:16.198Z,30.95
2018-04-13T19:29:45.830Z,32.75
2018-04-13T19:32:16.053Z,31.23
2018-04-13T19:34:46.041Z,32.40
2018-04-13T19:37:15.726Z,35.42
2018-04-13T19:39:44.983Z,32.78
2018-04-13T19:42:14.217Z,34.63
2018-04-13T19:44:44.246Z,30.02
2018-04-13T19:47:13.718Z,31.67
2018-04-13T19:49:43.076Z,30.77
2018-04-13T19:52:12.531Z,30.83
2018-04-13T19:54:42.107Z,40.30
2018-04-13T19:57:11.311Z,33.40
2018-04-13T19:59:41.107Z,38.60
2018-04-13T20:02:10.333Z,32.45
2018-04-13T20:04:39.698Z,36.55
2018-04-13T20:07:09.838Z,39.38
2018-04-13T20:09:39.990Z,33.25
2018-04-13T20:12:10.070Z,31.95
2018-04-13T20:14:40.183Z,33.45
2018-04-13T20:17:09.746Z,30.33
2018-04-13T20:19:39.825Z,30.20
2018-04-13T20:22:09.947Z,41.33
2018-04-13T20:24:40.034Z,31.05
2018-04-13T20:27:09.368Z,32.17
2018-04-13T20:29:39.466Z,32.13
2018-04-13T20:32:08.715Z,33.78
2018-04-13T20:34:38.283Z,31.02
2018-04-13T20:37:07.807Z,33.83
2018-04-13T20:39:37.930Z,35.03
2018-04-13T20:42:08.730Z,32.13
2018-04-13T20:44:38.154Z,32.17
2018-04-13T20:47:07.537Z,32.53
2018-04-13T20:49:37.382Z,34.15
2018-04-13T20:52:07.593Z,35.83
2018-04-13T20:54:36.837Z,33.17
2018-04-13T20:59:39.682Z,33.05
2018-04-13T21:02:09.599Z,33.53
2018-04-13T21:04:38.854Z,36.10
2018-04-13T21:07:08.618Z,35.25
2018-04-13T21:09:37.858Z,35.40
2018-04-13T21:12:07.792Z,33.63
2018-04-13T21:14:37.344Z,33.38
2018-04-13T21:17:06.838Z,34.33
2018-04-13T21:19:36.081Z,33.92
2018-04-13T21:22:05.699Z,43.47
2018-04-13T21:24:34.917Z,35.67
2018-04-13T21:27:04.271Z,75.68
2018-04-13T21:29:33.518Z,35.50
2018-04-13T21:32:02.851Z,34.15
2018-04-13T21:34:32.088Z,33.38
2018-04-13T21:37:01.851Z,34.13
2018-04-13T21:39:31.082Z,54.67
2018-04-13T21:42:00.683Z,35.80
2018-04-13T21:44:30.691Z,56.35
2018-04-13T21:47:00.085Z,35.58
2018-04-13T21:49:29.531Z,62.42
2018-04-13T21:51:58.728Z,34.78
2018-04-13T21:54:28.053Z,35.67
2018-04-13T21:56:57.271Z,34.88
2018-04-13T21:59:26.803Z,87.18
2018-04-13T22:01:56.026Z,54.60
2018-04-13T22:04:25.351Z,56.70
2018-04-13T22:06:54.579Z,38.45
2018-04-13T22:09:23.924Z,42.03
2018-04-13T22:11:53.149Z,40.65
2018-04-13T22:14:40.003Z,45.85
2018-04-13T22:17:09.232Z,68.22
2018-04-13T22:19:38.613Z,56.00
2018-04-13T22:22:08.078Z,70.40
2018-04-13T22:24:37.420Z,42.10
2018-04-13T22:27:06.650Z,57.88
2018-04-13T22:29:36.045Z,38.97
2018-04-13T22:32:05.254Z,65.87
2018-04-13T22:34:35.307Z,45.75
2018-04-13T22:37:05.254Z,42.78
2018-04-13T22:39:35.487Z,52.53
2018-04-13T22:42:04.710Z,56.30
2018-04-13T22:44:34.282Z,51.78
2018-04-13T22:47:03.937Z,40.33
2018-04-13T22:49:33.170Z,77.28
2018-04-13T22:52:02.602Z,55.28
2018-04-13T22:54:32.039Z,68.30
2018-04-13T22:57:01.639Z,54.70
2018-04-13T22:59:32.534Z,65.03
2018-04-13T23:02:02.059Z,43.75
2018-04-13T23:04:31.290Z,46.55
2018-04-13T23:07:00.655Z,43.92
2018-04-13T23:09:29.891Z,39.50
2018-04-13T23:11:59.262Z,39.45
2018-04-13T23:14:28.516Z,36.88
2018-04-13T23:16:58.062Z,37.75
2018-04-13T23:19:27.306Z,44.22
2018-04-13T23:21:56.665Z,40.60
2018-04-13T23:24:26.417Z,32.67
2018-04-13T23:26:55.886Z,42.88
2018-04-13T23:29:25.458Z,40.92
2018-04-13T23:31:54.798Z,39.67
2018-04-13T23:34:24.424Z,41.53
2018-04-13T23:36:54.524Z,41.37
2018-04-13T23:39:24.843Z,34.25
2018-04-13T23:41:55.436Z,40.05
2018-04-13T23:44:24.881Z,38.75
2018-04-13T23:46:54.590Z,38.58
2018-04-13T23:49:24.037Z,40.80
2018-04-13T23:51:53.268Z,39.90
2018-04-13T23:54:22.700Z,36.67
2018-04-13T23:56:52.155Z,39.20
2018-04-13T23:59:21.506Z,36.30
